sensor_id;sensor_type;location;lat;lon;timestamp;P1;durP1;ratioP1;P2;durP2;ratioP2
15130;SDS011;7666;50.920;4.628;2022-09-02T00:00:40;3.17;;;2.20;;
15130;SDS011;7666;50.920;4.628;2022-09-02T00:03:31;4.13;;;2.33;;
15130;SDS011;7666;50.920;4.628;2022-09-02T00:06:19;3.70;;;2.20;;
15130;SDS011;7666;50.920;4.628;2022-09-02T00:09:06;3.67;;;2.27;;
15130;SDS011;7666;50.920;4.628;2022-09-02T00:11:54;4.30;;;2.23;;
15130;SDS011;7666;50.920;4.628;2022-09-02T00:14:41;3.97;;;2.17;;
15130;SDS011;7666;50.920;4.628;2022-09-02T00:17:27;2.87;;;2.47;;
15130;SDS011;7666;50.920;4.628;2022-09-02T00:20:13;3.07;;;2.00;;
15130;SDS011;7666;50.920;4.628;2022-09-02T00:22:59;3.37;;;2.10;;
15130;SDS011;7666;50.920;4.628;2022-09-02T00:25:45;5.10;;;2.43;;
15130;SDS011;7666;50.920;4.628;2022-09-02T00:28:31;5.10;;;2.23;;
15130;SDS011;7666;50.920;4.628;2022-09-02T00:31:17;3.13;;;2.10;;
15130;SDS011;7666;50.920;4.628;2022-09-02T00:34:03;2.33;;;2.13;;
15130;SDS011;7666;50.920;4.628;2022-09-02T00:36:50;3.23;;;2.37;;
15130;SDS011;7666;50.920;4.628;2022-09-02T00:39:36;5.93;;;2.60;;
15130;SDS011;7666;50.920;4.628;2022-09-02T00:42:22;3.47;;;2.37;;
15130;SDS011;7666;50.920;4.628;2022-09-02T00:45:09;2.70;;;2.50;;
15130;SDS011;7666;50.920;4.628;2022-09-02T00:47:56;5.63;;;2.53;;
15130;SDS011;7666;50.920;4.628;2022-09-02T00:50:42;5.67;;;3.00;;
15130;SDS011;7666;50.920;4.628;2022-09-02T00:53:28;3.60;;;2.30;;
15130;SDS011;7666;50.920;4.628;2022-09-02T00:56:19;4.00;;;2.60;;
15130;SDS011;7666;50.920;4.628;2022-09-02T00:59:07;3.17;;;2.53;;
15130;SDS011;7666;50.920;4.628;2022-09-02T01:01:58;4.87;;;2.30;;
15130;SDS011;7666;50.920;4.628;2022-09-02T01:04:44;3.80;;;2.40;;
15130;SDS011;7666;50.920;4.628;2022-09-02T01:07:31;4.70;;;3.00;;
15130;SDS011;7666;50.920;4.628;2022-09-02T01:10:20;4.40;;;2.47;;
15130;SDS011;7666;50.920;4.628;2022-09-02T01:13:11;3.23;;;2.50;;
15130;SDS011;7666;50.920;4.628;2022-09-02T01:16:22;2.50;;;2.20;;
15130;SDS011;7666;50.920;4.628;2022-09-02T01:19:14;2.87;;;2.57;;
15130;SDS011;7666;50.920;4.628;2022-09-02T01:22:15;5.20;;;2.60;;
15130;SDS011;7666;50.920;4.628;2022-09-02T01:25:05;2.83;;;2.30;;
15130;SDS011;7666;50.920;4.628;2022-09-02T01:27:58;3.67;;;2.37;;
15130;SDS011;7666;50.920;4.628;2022-09-02T01:30:53;3.63;;;2.50;;
15130;SDS011;7666;50.920;4.628;2022-09-02T01:33:39;3.23;;;2.50;;
15130;SDS011;7666;50.920;4.628;2022-09-02T01:36:25;3.23;;;2.00;;
15130;SDS011;7666;50.920;4.628;2022-09-02T01:39:11;2.60;;;2.37;;
15130;SDS011;7666;50.920;4.628;2022-09-02T01:41:58;3.33;;;2.43;;
15130;SDS011;7666;50.920;4.628;2022-09-02T01:44:45;3.07;;;2.20;;
15130;SDS011;7666;50.920;4.628;2022-09-02T01:47:31;3.57;;;2.40;;
15130;SDS011;7666;50.920;4.628;2022-09-02T01:50:17;5.20;;;2.57;;
15130;SDS011;7666;50.920;4.628;2022-09-02T01:53:04;4.90;;;2.73;;
15130;SDS011;7666;50.920;4.628;2022-09-02T01:55:50;4.53;;;2.13;;
15130;SDS011;7666;50.920;4.628;2022-09-02T01:58:37;2.57;;;2.20;;
15130;SDS011;7666;50.920;4.628;2022-09-02T02:01:23;3.00;;;2.30;;
15130;SDS011;7666;50.920;4.628;2022-09-02T02:04:09;2.70;;;2.10;;
15130;SDS011;7666;50.920;4.628;2022-09-02T02:06:56;2.73;;;2.20;;
15130;SDS011;7666;50.920;4.628;2022-09-02T02:09:42;3.87;;;2.10;;
15130;SDS011;7666;50.920;4.628;2022-09-02T02:12:31;4.03;;;2.10;;
15130;SDS011;7666;50.920;4.628;2022-09-02T02:15:18;2.80;;;2.23;;
15130;SDS011;7666;50.920;4.628;2022-09-02T02:18:05;4.20;;;2.10;;
15130;SDS011;7666;50.920;4.628;2022-09-02T02:20:51;2.73;;;1.80;;
15130;SDS011;7666;50.920;4.628;2022-09-02T02:23:38;4.70;;;2.20;;
15130;SDS011;7666;50.920;4.628;2022-09-02T02:26:24;3.33;;;2.10;;
15130;SDS011;7666;50.920;4.628;2022-09-02T02:29:10;4.20;;;2.20;;
15130;SDS011;7666;50.920;4.628;2022-09-02T02:31:57;2.30;;;2.10;;
15130;SDS011;7666;50.920;4.628;2022-09-02T02:34:44;3.73;;;1.97;;
15130;SDS011;7666;50.920;4.628;2022-09-02T02:37:30;2.87;;;2.03;;
15130;SDS011;7666;50.920;4.628;2022-09-02T02:40:18;3.20;;;2.30;;
15130;SDS011;7666;50.920;4.628;2022-09-02T02:43:05;3.87;;;2.20;;
15130;SDS011;7666;50.920;4.628;2022-09-02T02:45:51;3.17;;;2.10;;
15130;SDS011;7666;50.920;4.628;2022-09-02T02:48:38;3.43;;;2.17;;
15130;SDS011;7666;50.920;4.628;2022-09-02T02:51:24;2.77;;;2.30;;
15130;SDS011;7666;50.920;4.628;2022-09-02T02:54:10;3.93;;;2.33;;
15130;SDS011;7666;50.920;4.628;2022-09-02T02:56:58;4.30;;;2.47;;
15130;SDS011;7666;50.920;4.628;2022-09-02T02:59:44;2.37;;;2.10;;
15130;SDS011;7666;50.920;4.628;2022-09-02T03:02:30;4.10;;;2.13;;
15130;SDS011;7666;50.920;4.628;2022-09-02T03:05:17;3.27;;;2.50;;
15130;SDS011;7666;50.920;4.628;2022-09-02T03:08:04;3.13;;;2.10;;
15130;SDS011;7666;50.920;4.628;2022-09-02T03:10:51;3.47;;;2.00;;
15130;SDS011;7666;50.920;4.628;2022-09-02T03:13:38;5.73;;;2.20;;
15130;SDS011;7666;50.920;4.628;2022-09-02T03:16:24;2.83;;;2.43;;
15130;SDS011;7666;50.920;4.628;2022-09-02T03:19:10;3.47;;;2.10;;
15130;SDS011;7666;50.920;4.628;2022-09-02T03:21:58;2.70;;;2.03;;
15130;SDS011;7666;50.920;4.628;2022-09-02T03:24:45;4.60;;;2.10;;
15130;SDS011;7666;50.920;4.628;2022-09-02T03:27:30;3.40;;;2.07;;
15130;SDS011;7666;50.920;4.628;2022-09-02T03:30:20;5.17;;;2.30;;
15130;SDS011;7666;50.920;4.628;2022-09-02T03:33:09;4.90;;;2.50;;
15130;SDS011;7666;50.920;4.628;2022-09-02T03:35:55;3.27;;;2.17;;
15130;SDS011;7666;50.920;4.628;2022-09-02T03:38:41;3.10;;;2.00;;
15130;SDS011;7666;50.920;4.628;2022-09-02T03:41:27;3.50;;;2.10;;
15130;SDS011;7666;50.920;4.628;2022-09-02T03:44:13;3.17;;;2.30;;
15130;SDS011;7666;50.920;4.628;2022-09-02T03:46:59;4.00;;;2.37;;
15130;SDS011;7666;50.920;4.628;2022-09-02T03:49:45;3.00;;;2.27;;
15130;SDS011;7666;50.920;4.628;2022-09-02T03:52:31;3.53;;;2.27;;
15130;SDS011;7666;50.920;4.628;2022-09-02T03:55:17;4.47;;;2.70;;
15130;SDS011;7666;50.920;4.628;2022-09-02T03:58:03;3.17;;;2.13;;
15130;SDS011;7666;50.920;4.628;2022-09-02T04:00:50;2.57;;;1.87;;
15130;SDS011;7666;50.920;4.628;2022-09-02T04:03:37;6.17;;;2.10;;
15130;SDS011;7666;50.920;4.628;2022-09-02T04:06:24;4.50;;;2.30;;
15130;SDS011;7666;50.920;4.628;2022-09-02T04:09:10;2.30;;;2.10;;
15130;SDS011;7666;50.920;4.628;2022-09-02T04:11:56;2.77;;;1.93;;
15130;SDS011;7666;50.920;4.628;2022-09-02T04:14:42;2.40;;;2.20;;
15130;SDS011;7666;50.920;4.628;2022-09-02T04:17:28;3.87;;;2.07;;
15130;SDS011;7666;50.920;4.628;2022-09-02T04:20:14;3.63;;;2.30;;
15130;SDS011;7666;50.920;4.628;2022-09-02T04:23:01;4.83;;;2.17;;
15130;SDS011;7666;50.920;4.628;2022-09-02T04:25:48;4.57;;;2.20;;
15130;SDS011;7666;50.920;4.628;2022-09-02T04:28:34;4.60;;;2.50;;
15130;SDS011;7666;50.920;4.628;2022-09-02T04:31:21;2.77;;;2.23;;
15130;SDS011;7666;50.920;4.628;2022-09-02T04:34:14;4.20;;;2.17;;
15130;SDS011;7666;50.920;4.628;2022-09-02T04:37:00;2.53;;;2.20;;
15130;SDS011;7666;50.920;4.628;2022-09-02T04:39:46;3.83;;;2.27;;
15130;SDS011;7666;50.920;4.628;2022-09-02T04:42:32;4.73;;;2.10;;
15130;SDS011;7666;50.920;4.628;2022-09-02T04:45:18;4.90;;;2.77;;
15130;SDS011;7666;50.920;4.628;2022-09-02T04:48:04;3.30;;;2.17;;
15130;SDS011;7666;50.920;4.628;2022-09-02T04:50:50;2.57;;;2.13;;
15130;SDS011;7666;50.920;4.628;2022-09-02T04:53:36;2.63;;;2.03;;
15130;SDS011;7666;50.920;4.628;2022-09-02T04:56:24;4.47;;;2.10;;
15130;SDS011;7666;50.920;4.628;2022-09-02T04:59:11;4.37;;;2.10;;
15130;SDS011;7666;50.920;4.628;2022-09-02T05:01:57;3.10;;;2.17;;
15130;SDS011;7666;50.920;4.628;2022-09-02T05:04:44;3.60;;;2.20;;
15130;SDS011;7666;50.920;4.628;2022-09-02T05:07:30;2.47;;;2.27;;
15130;SDS011;7666;50.920;4.628;2022-09-02T05:10:16;3.40;;;2.10;;
15130;SDS011;7666;50.920;4.628;2022-09-02T05:13:02;2.40;;;2.20;;
15130;SDS011;7666;50.920;4.628;2022-09-02T05:15:49;3.00;;;2.20;;
15130;SDS011;7666;50.920;4.628;2022-09-02T05:18:35;5.20;;;2.40;;
15130;SDS011;7666;50.920;4.628;2022-09-02T05:21:22;4.50;;;2.60;;
15130;SDS011;7666;50.920;4.628;2022-09-02T05:24:08;4.47;;;2.33;;
15130;SDS011;7666;50.920;4.628;2022-09-02T05:26:54;4.47;;;2.40;;
15130;SDS011;7666;50.920;4.628;2022-09-02T05:29:41;2.93;;;2.10;;
15130;SDS011;7666;50.920;4.628;2022-09-02T05:32:27;3.87;;;1.90;;
15130;SDS011;7666;50.920;4.628;2022-09-02T05:35:13;3.33;;;2.27;;
15130;SDS011;7666;50.920;4.628;2022-09-02T05:37:59;4.67;;;2.37;;
15130;SDS011;7666;50.920;4.628;2022-09-02T05:40:45;5.10;;;2.10;;
15130;SDS011;7666;50.920;4.628;2022-09-02T05:43:31;5.17;;;2.10;;
15130;SDS011;7666;50.920;4.628;2022-09-02T05:46:19;6.80;;;2.47;;
15130;SDS011;7666;50.920;4.628;2022-09-02T05:49:07;2.97;;;2.37;;
15130;SDS011;7666;50.920;4.628;2022-09-02T05:51:54;4.23;;;2.20;;
15130;SDS011;7666;50.920;4.628;2022-09-02T05:54:42;7.00;;;2.37;;
15130;SDS011;7666;50.920;4.628;2022-09-02T05:57:28;2.40;;;1.97;;
15130;SDS011;7666;50.920;4.628;2022-09-02T06:00:14;2.93;;;2.13;;
15130;SDS011;7666;50.920;4.628;2022-09-02T06:03:00;5.27;;;2.20;;
15130;SDS011;7666;50.920;4.628;2022-09-02T06:05:56;3.03;;;2.00;;
15130;SDS011;7666;50.920;4.628;2022-09-02T06:08:43;4.17;;;2.40;;
15130;SDS011;7666;50.920;4.628;2022-09-02T06:11:29;3.13;;;2.53;;
15130;SDS011;7666;50.920;4.628;2022-09-02T06:14:16;3.67;;;2.17;;
15130;SDS011;7666;50.920;4.628;2022-09-02T06:17:04;2.97;;;2.40;;
15130;SDS011;7666;50.920;4.628;2022-09-02T06:19:50;5.20;;;2.43;;
15130;SDS011;7666;50.920;4.628;2022-09-02T06:22:36;4.07;;;1.90;;
15130;SDS011;7666;50.920;4.628;2022-09-02T06:25:22;5.07;;;2.27;;
15130;SDS011;7666;50.920;4.628;2022-09-02T06:28:08;3.30;;;1.90;;
15130;SDS011;7666;50.920;4.628;2022-09-02T06:30:56;4.70;;;2.10;;
15130;SDS011;7666;50.920;4.628;2022-09-02T06:33:43;3.33;;;2.13;;
15130;SDS011;7666;50.920;4.628;2022-09-02T06:36:30;3.53;;;1.93;;
15130;SDS011;7666;50.920;4.628;2022-09-02T06:39:18;3.67;;;1.80;;
15130;SDS011;7666;50.920;4.628;2022-09-02T06:42:05;5.87;;;2.60;;
15130;SDS011;7666;50.920;4.628;2022-09-02T06:44:51;5.80;;;2.93;;
15130;SDS011;7666;50.920;4.628;2022-09-02T06:47:37;9.27;;;2.63;;
15130;SDS011;7666;50.920;4.628;2022-09-02T06:50:23;9.20;;;2.90;;
15130;SDS011;7666;50.920;4.628;2022-09-02T06:53:09;7.95;;;2.53;;
15130;SDS011;7666;50.920;4.628;2022-09-02T06:55:56;14.20;;;3.08;;
15130;SDS011;7666;50.920;4.628;2022-09-02T06:58:42;5.32;;;2.60;;
15130;SDS011;7666;50.920;4.628;2022-09-02T07:01:28;6.57;;;2.75;;
15130;SDS011;7666;50.920;4.628;2022-09-02T07:04:16;5.78;;;3.08;;
15130;SDS011;7666;50.920;4.628;2022-09-02T07:07:20;8.40;;;3.07;;
15130;SDS011;7666;50.920;4.628;2022-09-02T07:10:08;8.33;;;2.97;;
15130;SDS011;7666;50.920;4.628;2022-09-02T07:12:56;10.47;;;3.53;;
15130;SDS011;7666;50.920;4.628;2022-09-02T07:15:42;9.57;;;3.13;;
15130;SDS011;7666;50.920;4.628;2022-09-02T07:18:28;17.40;;;2.97;;
15130;SDS011;7666;50.920;4.628;2022-09-02T07:21:14;19.17;;;3.77;;
15130;SDS011;7666;50.920;4.628;2022-09-02T07:24:00;14.23;;;3.40;;
15130;SDS011;7666;50.920;4.628;2022-09-02T07:26:46;11.60;;;3.00;;
15130;SDS011;7666;50.920;4.628;2022-09-02T07:29:32;11.03;;;3.07;;
15130;SDS011;7666;50.920;4.628;2022-09-02T07:32:18;8.40;;;3.10;;
15130;SDS011;7666;50.920;4.628;2022-09-02T07:35:06;5.50;;;2.70;;
15130;SDS011;7666;50.920;4.628;2022-09-02T07:37:53;4.50;;;2.67;;
15130;SDS011;7666;50.920;4.628;2022-09-02T07:40:40;8.17;;;2.50;;
15130;SDS011;7666;50.920;4.628;2022-09-02T07:43:27;3.73;;;2.67;;
15130;SDS011;7666;50.920;4.628;2022-09-02T07:46:14;3.53;;;2.30;;
15130;SDS011;7666;50.920;4.628;2022-09-02T07:49:00;3.20;;;2.50;;
15130;SDS011;7666;50.920;4.628;2022-09-02T07:51:50;3.53;;;2.33;;
15130;SDS011;7666;50.920;4.628;2022-09-02T07:54:37;6.10;;;2.47;;
15130;SDS011;7666;50.920;4.628;2022-09-02T07:57:22;5.60;;;2.43;;
15130;SDS011;7666;50.920;4.628;2022-09-02T08:00:09;5.73;;;2.40;;
15130;SDS011;7666;50.920;4.628;2022-09-02T08:02:56;3.33;;;1.90;;
15130;SDS011;7666;50.920;4.628;2022-09-02T08:05:43;2.83;;;2.00;;
15130;SDS011;7666;50.920;4.628;2022-09-02T08:08:31;4.40;;;2.30;;
15130;SDS011;7666;50.920;4.628;2022-09-02T08:11:18;3.77;;;2.03;;
15130;SDS011;7666;50.920;4.628;2022-09-02T08:14:06;3.97;;;2.10;;
15130;SDS011;7666;50.920;4.628;2022-09-02T08:16:54;4.63;;;2.40;;
15130;SDS011;7666;50.920;4.628;2022-09-02T08:19:40;2.57;;;2.30;;
15130;SDS011;7666;50.920;4.628;2022-09-02T08:22:31;3.93;;;2.37;;
15130;SDS011;7666;50.920;4.628;2022-09-02T08:25:18;3.77;;;2.30;;
15130;SDS011;7666;50.920;4.628;2022-09-02T08:28:04;4.83;;;2.30;;
15130;SDS011;7666;50.920;4.628;2022-09-02T08:30:50;6.90;;;2.30;;
15130;SDS011;7666;50.920;4.628;2022-09-02T08:33:37;4.70;;;2.33;;
15130;SDS011;7666;50.920;4.628;2022-09-02T08:36:23;3.77;;;2.37;;
15130;SDS011;7666;50.920;4.628;2022-09-02T08:39:09;6.00;;;2.50;;
15130;SDS011;7666;50.920;4.628;2022-09-02T08:42:11;3.03;;;1.93;;
15130;SDS011;7666;50.920;4.628;2022-09-02T08:45:08;4.80;;;2.60;;
15130;SDS011;7666;50.920;4.628;2022-09-02T08:51:13;3.87;;;2.30;;
15130;SDS011;7666;50.920;4.628;2022-09-02T08:57:05;5.40;;;2.50;;
15130;SDS011;7666;50.920;4.628;2022-09-02T08:59:55;7.17;;;2.87;;
15130;SDS011;7666;50.920;4.628;2022-09-02T09:03:04;6.07;;;2.20;;
15130;SDS011;7666;50.920;4.628;2022-09-02T09:09:13;5.00;;;2.20;;
15130;SDS011;7666;50.920;4.628;2022-09-02T09:18:10;7.33;;;2.93;;
15130;SDS011;7666;50.920;4.628;2022-09-02T09:21:01;4.60;;;2.53;;
15130;SDS011;7666;50.920;4.628;2022-09-02T09:23:48;6.63;;;2.60;;
15130;SDS011;7666;50.920;4.628;2022-09-02T09:26:39;3.63;;;2.27;;
15130;SDS011;7666;50.920;4.628;2022-09-02T09:29:29;4.97;;;2.23;;
15130;SDS011;7666;50.920;4.628;2022-09-02T09:32:22;4.97;;;2.40;;
15130;SDS011;7666;50.920;4.628;2022-09-02T09:35:20;5.70;;;2.20;;
15130;SDS011;7666;50.920;4.628;2022-09-02T09:38:10;5.90;;;2.60;;
15130;SDS011;7666;50.920;4.628;2022-09-02T09:41:31;4.13;;;2.50;;
15130;SDS011;7666;50.920;4.628;2022-09-02T09:47:31;6.80;;;1.97;;
15130;SDS011;7666;50.920;4.628;2022-09-02T09:50:16;4.90;;;2.10;;
15130;SDS011;7666;50.920;4.628;2022-09-02T09:53:19;5.03;;;2.13;;
15130;SDS011;7666;50.920;4.628;2022-09-02T09:58:58;4.43;;;2.10;;
15130;SDS011;7666;50.920;4.628;2022-09-02T10:01:48;5.40;;;2.00;;
15130;SDS011;7666;50.920;4.628;2022-09-02T10:04:35;4.00;;;1.80;;
15130;SDS011;7666;50.920;4.628;2022-09-02T10:07:40;3.77;;;1.60;;
15130;SDS011;7666;50.920;4.628;2022-09-02T10:10:28;3.17;;;1.73;;
15130;SDS011;7666;50.920;4.628;2022-09-02T10:13:17;2.15;;;1.42;;
15130;SDS011;7666;50.920;4.628;2022-09-02T10:19:12;4.13;;;1.60;;
15130;SDS011;7666;50.920;4.628;2022-09-02T10:25:27;6.32;;;1.73;;
15130;SDS011;7666;50.920;4.628;2022-09-02T10:31:55;6.00;;;1.48;;
15130;SDS011;7666;50.920;4.628;2022-09-02T10:40:58;1.42;;;1.23;;
15130;SDS011;7666;50.920;4.628;2022-09-02T10:46:52;2.70;;;1.55;;
15130;SDS011;7666;50.920;4.628;2022-09-02T10:49:50;2.42;;;1.50;;
15130;SDS011;7666;50.920;4.628;2022-09-02T10:55:59;2.35;;;1.45;;
15130;SDS011;7666;50.920;4.628;2022-09-02T10:59:04;2.28;;;1.10;;
15130;SDS011;7666;50.920;4.628;2022-09-02T11:01:59;2.35;;;1.70;;
15130;SDS011;7666;50.920;4.628;2022-09-02T11:05:01;3.10;;;1.42;;
15130;SDS011;7666;50.920;4.628;2022-09-02T11:08:09;4.80;;;1.30;;
15130;SDS011;7666;50.920;4.628;2022-09-02T11:14:25;2.55;;;1.25;;
15130;SDS011;7666;50.920;4.628;2022-09-02T11:17:36;4.43;;;1.30;;
15130;SDS011;7666;50.920;4.628;2022-09-02T11:23:25;3.33;;;1.40;;
15130;SDS011;7666;50.920;4.628;2022-09-02T11:29:59;3.23;;;1.20;;
15130;SDS011;7666;50.920;4.628;2022-09-02T11:35:38;3.67;;;1.20;;
15130;SDS011;7666;50.920;4.628;2022-09-02T11:41:29;3.07;;;1.20;;
15130;SDS011;7666;50.920;4.628;2022-09-02T11:44:57;2.58;;;1.30;;
15130;SDS011;7666;50.920;4.628;2022-09-02T11:54:04;3.80;;;1.17;;
15130;SDS011;7666;50.920;4.628;2022-09-02T11:56:57;2.78;;;1.50;;
15130;SDS011;7666;50.920;4.628;2022-09-02T12:17:09;2.10;;;1.27;;
15130;SDS011;7666;50.920;4.628;2022-09-02T12:19:56;2.42;;;1.00;;
15130;SDS011;7666;50.920;4.628;2022-09-02T12:22:42;3.47;;;1.20;;
15130;SDS011;7666;50.920;4.628;2022-09-02T12:28:23;1.88;;;1.17;;
15130;SDS011;7666;50.920;4.628;2022-09-02T12:31:13;2.13;;;1.25;;
15130;SDS011;7666;50.920;4.628;2022-09-02T12:37:48;2.80;;;0.93;;
15130;SDS011;7666;50.920;4.628;2022-09-02T12:40:39;2.95;;;1.10;;
15130;SDS011;7666;50.920;4.628;2022-09-02T12:43:36;3.03;;;1.00;;
15130;SDS011;7666;50.920;4.628;2022-09-02T12:49:35;2.40;;;1.10;;
15130;SDS011;7666;50.920;4.628;2022-09-02T12:55:23;2.30;;;1.10;;
15130;SDS011;7666;50.920;4.628;2022-09-02T12:58:18;2.35;;;1.20;;
15130;SDS011;7666;50.920;4.628;2022-09-02T13:04:14;3.33;;;1.10;;
15130;SDS011;7666;50.920;4.628;2022-09-02T13:32:24;1.63;;;1.00;;
15130;SDS011;7666;50.920;4.628;2022-09-02T13:35:20;0.85;;;0.85;;
15130;SDS011;7666;50.920;4.628;2022-09-02T13:38:10;1.33;;;1.00;;
15130;SDS011;7666;50.920;4.628;2022-09-02T13:40:57;3.53;;;1.00;;
15130;SDS011;7666;50.920;4.628;2022-09-02T13:43:44;2.78;;;1.15;;
15130;SDS011;7666;50.920;4.628;2022-09-02T13:46:29;1.08;;;0.90;;
15130;SDS011;7666;50.920;4.628;2022-09-02T13:52:16;1.38;;;0.90;;
15130;SDS011;7666;50.920;4.628;2022-09-02T13:55:04;1.70;;;0.90;;
15130;SDS011;7666;50.920;4.628;2022-09-02T13:57:56;1.20;;;0.93;;
15130;SDS011;7666;50.920;4.628;2022-09-02T14:00:44;2.67;;;0.90;;
15130;SDS011;7666;50.920;4.628;2022-09-02T14:03:30;1.23;;;1.10;;
15130;SDS011;7666;50.920;4.628;2022-09-02T14:06:17;1.10;;;1.00;;
15130;SDS011;7666;50.920;4.628;2022-09-02T14:09:09;4.25;;;0.98;;
15130;SDS011;7666;50.920;4.628;2022-09-02T14:12:04;2.08;;;1.15;;
15130;SDS011;7666;50.920;4.628;2022-09-02T14:14:51;1.80;;;1.10;;
15130;SDS011;7666;50.920;4.628;2022-09-02T14:17:38;6.00;;;1.10;;
15130;SDS011;7666;50.920;4.628;2022-09-02T14:20:24;2.33;;;1.25;;
15130;SDS011;7666;50.920;4.628;2022-09-02T14:23:12;1.98;;;1.10;;
15130;SDS011;7666;50.920;4.628;2022-09-02T14:26:01;2.40;;;1.05;;
15130;SDS011;7666;50.920;4.628;2022-09-02T14:28:49;1.35;;;1.05;;
15130;SDS011;7666;50.920;4.628;2022-09-02T14:31:36;1.90;;;1.17;;
15130;SDS011;7666;50.920;4.628;2022-09-02T14:34:35;1.75;;;1.10;;
15130;SDS011;7666;50.920;4.628;2022-09-02T14:37:26;1.70;;;0.90;;
15130;SDS011;7666;50.920;4.628;2022-09-02T14:40:12;0.80;;;0.80;;
15130;SDS011;7666;50.920;4.628;2022-09-02T14:42:59;2.72;;;1.13;;
15130;SDS011;7666;50.920;4.628;2022-09-02T14:45:46;2.58;;;1.10;;
15130;SDS011;7666;50.920;4.628;2022-09-02T14:48:35;1.92;;;0.90;;
15130;SDS011;7666;50.920;4.628;2022-09-02T14:51:24;2.50;;;0.90;;
15130;SDS011;7666;50.920;4.628;2022-09-02T15:00:19;3.30;;;1.10;;
15130;SDS011;7666;50.920;4.628;2022-09-02T15:03:05;1.90;;;0.85;;
15130;SDS011;7666;50.920;4.628;2022-09-02T15:05:51;1.15;;;1.00;;
15130;SDS011;7666;50.920;4.628;2022-09-02T15:08:38;1.55;;;0.90;;
15130;SDS011;7666;50.920;4.628;2022-09-02T15:11:24;2.22;;;1.02;;
15130;SDS011;7666;50.920;4.628;2022-09-02T15:14:10;2.97;;;1.00;;
15130;SDS011;7666;50.920;4.628;2022-09-02T15:16:58;1.90;;;1.05;;
15130;SDS011;7666;50.920;4.628;2022-09-02T15:19:44;1.77;;;0.80;;
15130;SDS011;7666;50.920;4.628;2022-09-02T15:22:31;7.35;;;1.40;;
15130;SDS011;7666;50.920;4.628;2022-09-02T15:25:16;3.22;;;0.95;;
15130;SDS011;7666;50.920;4.628;2022-09-02T15:28:03;1.15;;;1.00;;
15130;SDS011;7666;50.920;4.628;2022-09-02T15:30:55;2.42;;;1.05;;
15130;SDS011;7666;50.920;4.628;2022-09-02T15:33:47;2.95;;;0.98;;
15130;SDS011;7666;50.920;4.628;2022-09-02T15:36:35;2.20;;;0.90;;
15130;SDS011;7666;50.920;4.628;2022-09-02T15:39:21;2.97;;;0.90;;
15130;SDS011;7666;50.920;4.628;2022-09-02T15:42:08;1.23;;;1.00;;
15130;SDS011;7666;50.920;4.628;2022-09-02T15:44:54;1.17;;;0.80;;
15130;SDS011;7666;50.920;4.628;2022-09-02T15:47:40;3.60;;;1.05;;
15130;SDS011;7666;50.920;4.628;2022-09-02T15:50:27;2.30;;;1.00;;
15130;SDS011;7666;50.920;4.628;2022-09-02T15:53:16;1.00;;;0.90;;
15130;SDS011;7666;50.920;4.628;2022-09-02T15:56:02;3.28;;;1.40;;
15130;SDS011;7666;50.920;4.628;2022-09-02T15:58:52;1.10;;;1.00;;
15130;SDS011;7666;50.920;4.628;2022-09-02T16:01:55;1.00;;;1.00;;
15130;SDS011;7666;50.920;4.628;2022-09-02T16:04:42;1.38;;;1.02;;
15130;SDS011;7666;50.920;4.628;2022-09-02T16:07:28;1.48;;;1.20;;
15130;SDS011;7666;50.920;4.628;2022-09-02T16:10:15;1.58;;;1.08;;
15130;SDS011;7666;50.920;4.628;2022-09-02T16:13:01;4.05;;;1.10;;
15130;SDS011;7666;50.920;4.628;2022-09-02T16:15:47;2.40;;;1.27;;
15130;SDS011;7666;50.920;4.628;2022-09-02T16:18:38;2.63;;;1.25;;
15130;SDS011;7666;50.920;4.628;2022-09-02T16:21:25;4.05;;;1.20;;
15130;SDS011;7666;50.920;4.628;2022-09-02T16:24:11;3.28;;;1.20;;
15130;SDS011;7666;50.920;4.628;2022-09-02T16:26:57;6.82;;;1.33;;
15130;SDS011;7666;50.920;4.628;2022-09-02T16:29:43;2.08;;;1.20;;
15130;SDS011;7666;50.920;4.628;2022-09-02T16:32:29;4.55;;;1.48;;
15130;SDS011;7666;50.920;4.628;2022-09-02T16:35:15;1.35;;;1.10;;
15130;SDS011;7666;50.920;4.628;2022-09-02T16:38:01;8.55;;;1.40;;
15130;SDS011;7666;50.920;4.628;2022-09-02T16:40:50;1.58;;;1.48;;
15130;SDS011;7666;50.920;4.628;2022-09-02T16:43:37;3.42;;;1.17;;
15130;SDS011;7666;50.920;4.628;2022-09-02T16:46:24;3.80;;;1.30;;
15130;SDS011;7666;50.920;4.628;2022-09-02T16:49:12;2.40;;;1.30;;
15130;SDS011;7666;50.920;4.628;2022-09-02T16:52:00;2.78;;;1.20;;
15130;SDS011;7666;50.920;4.628;2022-09-02T16:54:46;4.43;;;1.30;;
15130;SDS011;7666;50.920;4.628;2022-09-02T16:57:32;4.07;;;1.50;;
15130;SDS011;7666;50.920;4.628;2022-09-02T17:00:17;6.23;;;1.40;;
15130;SDS011;7666;50.920;4.628;2022-09-02T17:03:04;4.00;;;1.30;;
15130;SDS011;7666;50.920;4.628;2022-09-02T17:05:51;3.80;;;1.47;;
15130;SDS011;7666;50.920;4.628;2022-09-02T17:08:37;3.90;;;1.37;;
15130;SDS011;7666;50.920;4.628;2022-09-02T17:11:31;3.70;;;1.20;;
15130;SDS011;7666;50.920;4.628;2022-09-02T17:14:20;2.73;;;1.40;;
15130;SDS011;7666;50.920;4.628;2022-09-02T17:17:06;3.23;;;1.27;;
15130;SDS011;7666;50.920;4.628;2022-09-02T17:19:52;5.40;;;1.30;;
15130;SDS011;7666;50.920;4.628;2022-09-02T17:22:39;2.93;;;1.33;;
15130;SDS011;7666;50.920;4.628;2022-09-02T17:25:26;2.07;;;1.47;;
15130;SDS011;7666;50.920;4.628;2022-09-02T17:28:11;6.70;;;1.67;;
15130;SDS011;7666;50.920;4.628;2022-09-02T17:30:57;1.37;;;1.27;;
15130;SDS011;7666;50.920;4.628;2022-09-02T17:33:44;4.77;;;1.30;;
15130;SDS011;7666;50.920;4.628;2022-09-02T17:36:31;2.77;;;1.20;;
15130;SDS011;7666;50.920;4.628;2022-09-02T17:39:19;4.10;;;1.43;;
15130;SDS011;7666;50.920;4.628;2022-09-02T17:42:05;5.77;;;1.30;;
15130;SDS011;7666;50.920;4.628;2022-09-02T17:44:52;5.23;;;1.40;;
15130;SDS011;7666;50.920;4.628;2022-09-02T17:47:37;2.47;;;1.20;;
15130;SDS011;7666;50.920;4.628;2022-09-02T17:50:23;3.57;;;1.27;;
15130;SDS011;7666;50.920;4.628;2022-09-02T17:53:09;3.87;;;1.50;;
15130;SDS011;7666;50.920;4.628;2022-09-02T17:55:59;3.00;;;1.30;;
15130;SDS011;7666;50.920;4.628;2022-09-02T17:59:15;2.90;;;1.50;;
15130;SDS011;7666;50.920;4.628;2022-09-02T18:07:49;5.60;;;1.70;;
15130;SDS011;7666;50.920;4.628;2022-09-02T18:10:56;6.93;;;1.50;;
15130;SDS011;7666;50.920;4.628;2022-09-02T18:17:20;3.07;;;1.50;;
15130;SDS011;7666;50.920;4.628;2022-09-02T18:23:09;7.70;;;1.60;;
15130;SDS011;7666;50.920;4.628;2022-09-02T18:26:42;2.40;;;1.50;;
15130;SDS011;7666;50.920;4.628;2022-09-02T18:29:53;4.23;;;1.40;;
15130;SDS011;7666;50.920;4.628;2022-09-02T18:36:00;5.67;;;1.57;;
15130;SDS011;7666;50.920;4.628;2022-09-02T18:42:09;2.33;;;1.17;;
15130;SDS011;7666;50.920;4.628;2022-09-02T18:45:46;3.83;;;1.40;;
15130;SDS011;7666;50.920;4.628;2022-09-02T18:48:23;3.83;;;1.30;;
15130;SDS011;7666;50.920;4.628;2022-09-02T18:51:24;8.00;;;1.53;;
15130;SDS011;7666;50.920;4.628;2022-09-02T18:54:24;4.43;;;1.30;;
15130;SDS011;7666;50.920;4.628;2022-09-02T18:57:13;1.90;;;1.20;;
15130;SDS011;7666;50.920;4.628;2022-09-02T19:05:49;5.27;;;1.50;;
15130;SDS011;7666;50.920;4.628;2022-09-02T19:08:35;3.17;;;1.43;;
15130;SDS011;7666;50.920;4.628;2022-09-02T19:11:22;6.80;;;1.70;;
15130;SDS011;7666;50.920;4.628;2022-09-02T19:17:10;3.10;;;1.40;;
15130;SDS011;7666;50.920;4.628;2022-09-02T19:19:56;6.67;;;1.43;;
15130;SDS011;7666;50.920;4.628;2022-09-02T19:22:46;3.00;;;1.30;;
15130;SDS011;7666;50.920;4.628;2022-09-02T19:25:36;3.10;;;1.20;;
15130;SDS011;7666;50.920;4.628;2022-09-02T19:28:23;3.93;;;1.50;;
15130;SDS011;7666;50.920;4.628;2022-09-02T19:31:11;3.67;;;1.33;;
15130;SDS011;7666;50.920;4.628;2022-09-02T19:34:02;4.40;;;1.40;;
15130;SDS011;7666;50.920;4.628;2022-09-02T19:36:49;3.53;;;1.73;;
15130;SDS011;7666;50.920;4.628;2022-09-02T19:39:35;4.53;;;1.50;;
15130;SDS011;7666;50.920;4.628;2022-09-02T19:42:22;3.57;;;1.40;;
15130;SDS011;7666;50.920;4.628;2022-09-02T19:45:08;4.30;;;1.27;;
15130;SDS011;7666;50.920;4.628;2022-09-02T19:47:54;2.57;;;1.30;;
15130;SDS011;7666;50.920;4.628;2022-09-02T19:50:43;7.60;;;1.43;;
15130;SDS011;7666;50.920;4.628;2022-09-02T19:53:31;5.03;;;1.57;;